首页
METAR-TAF:

METAR-TAF

机场 :

Ashtabula County Airport

阿什塔比拉, 俄亥俄州, 美国

纬度: 41-46-46N, 经度: 080-41-48W, 海拔: 281米

当前天气观测

该预报发布于53分钟前的15:53 UTC
风速9节,风向西
温度 28°C
湿度 55%
气压 1019 hPa
少量云层高于4500英尺

METAR: KHZY 261553Z AUTO 28009KT FEW045 28/18 A3008 RMK AO2 SLP178 T02780178 $

时间: 12:46 (16:46 UTC)


TAF: 丢失

超过4000个机场的气象观测和天气预报(METAR&TAF报告)。

可查询的气象台以黄色和红色小点在地图上表示。

将鼠标移到小点上方,可查看气象台名称。

然后点击查看天气观测和预报。

如需切换地图:点击带黑十字的绿色按钮放大地图;点击带横线的绿色按钮缩小地图;或者点击绿色箭头查看邻近地区的地图。


METAR-TAF: